createdAt,value
2022-08-01T00:02:51.921Z,54.4
2022-08-01T00:22:52.016Z,56.5
2022-08-01T00:42:51.797Z,58.0
2022-08-01T01:02:51.762Z,58.1
2022-08-01T01:22:51.806Z,58.9
2022-08-01T01:42:51.800Z,59.9
2022-08-01T02:22:51.732Z,61.0
2022-08-01T03:02:51.701Z,62.4
2022-08-01T03:22:51.600Z,64.1
2022-08-01T03:42:51.594Z,64.4
2022-08-01T04:02:51.604Z,65.4
2022-08-01T04:22:51.575Z,66.0
2022-08-01T04:42:51.563Z,66.0
2022-08-01T05:02:51.467Z,65.9
2022-08-01T05:22:51.476Z,69.6
2022-08-01T05:42:51.436Z,69.0
2022-08-01T06:02:51.455Z,68.5
2022-08-01T06:22:51.419Z,66.6
2022-08-01T06:42:51.406Z,63.6
2022-08-01T07:22:51.347Z,61.9
2022-08-01T07:42:51.333Z,62.2
2022-08-01T08:02:51.220Z,59.9
2022-08-01T08:22:51.231Z,59.6
2022-08-01T08:42:51.234Z,58.7
2022-08-01T09:02:51.166Z,58.2
2022-08-01T09:22:51.184Z,56.9
2022-08-01T10:22:51.091Z,55.1
2022-08-01T10:42:51.072Z,57.3
2022-08-01T11:02:51.097Z,53.3
2022-08-01T11:22:50.952Z,52.9
2022-08-01T11:42:50.927Z,51.0
2022-08-01T12:02:50.909Z,49.6
2022-08-01T12:22:50.978Z,52.9
2022-08-01T12:42:50.946Z,48.5
2022-08-01T13:02:50.926Z,46.8
2022-08-01T13:22:50.811Z,48.2
2022-08-01T13:42:50.768Z,48.0
2022-08-01T14:02:50.818Z,45.1
2022-08-01T14:22:50.791Z,45.2
2022-08-01T14:42:50.772Z,46.6
2022-08-01T15:02:50.676Z,46.8
2022-08-01T15:42:50.613Z,46.4
2022-08-01T16:02:50.626Z,45.0
2022-08-01T16:22:50.584Z,47.5
2022-08-01T17:02:50.535Z,50.0
2022-08-01T17:22:50.482Z,47.5
2022-08-01T17:42:50.459Z,49.2
2022-08-01T18:22:50.481Z,51.4
2022-08-01T18:42:50.395Z,50.9
2022-08-01T19:02:50.430Z,52.7
2022-08-01T19:22:50.416Z,53.2
2022-08-01T19:42:50.379Z,54.8
2022-08-01T20:02:50.343Z,54.7
2022-08-01T21:02:50.200Z,59.1
2022-08-01T21:22:50.246Z,62.8
2022-08-01T21:42:50.178Z,64.2
2022-08-01T22:02:50.193Z,64.3
2022-08-01T22:22:50.166Z,64.2
2022-08-01T22:42:50.132Z,64.5
2022-08-01T23:22:50.084Z,65.1
2022-08-01T23:42:50.050Z,66.3
